createdAt,value
2022-08-03T00:00:41.901Z,19.36
2022-08-03T00:01:41.901Z,19.34
2022-08-03T00:02:41.916Z,19.31
2022-08-03T00:03:41.904Z,19.27
2022-08-03T00:04:41.896Z,19.21
2022-08-03T00:06:03.480Z,19.33
2022-08-03T00:06:41.897Z,19.16
2022-08-03T00:07:41.901Z,19.26
2022-08-03T00:08:41.890Z,19.22
2022-08-03T00:09:41.895Z,19.31
2022-08-03T00:10:41.923Z,19.31
2022-08-03T00:11:41.901Z,19.33
2022-08-03T00:12:41.886Z,19.36
2022-08-03T00:13:41.875Z,19.34
2022-08-03T00:14:41.929Z,19.34
2022-08-03T00:15:41.885Z,19.33
2022-08-03T00:16:41.881Z,19.44
2022-08-03T00:17:52.081Z,19.37
2022-08-03T00:18:41.881Z,19.44
2022-08-03T00:19:41.890Z,19.45
2022-08-03T00:20:41.869Z,19.59
2022-08-03T00:21:41.872Z,19.52
2022-08-03T00:22:41.868Z,19.56
2022-08-03T00:23:52.462Z,19.52
2022-08-03T00:24:41.862Z,19.58
2022-08-03T00:25:41.856Z,19.59
2022-08-03T00:26:41.862Z,19.59
2022-08-03T00:27:41.860Z,19.56
2022-08-03T00:28:41.859Z,19.58
2022-08-03T00:29:59.815Z,19.51
2022-08-03T00:30:41.898Z,19.56
2022-08-03T00:31:52.314Z,19.52
2022-08-03T00:32:44.270Z,19.51
2022-08-03T00:33:58.855Z,19.52
2022-08-03T00:34:57.865Z,19.55
2022-08-03T00:35:50.725Z,19.56
2022-08-03T00:36:41.842Z,19.62
2022-08-03T00:37:42.024Z,19.59
2022-08-03T00:38:41.842Z,19.56
2022-08-03T00:39:41.847Z,19.55
2022-08-03T00:40:41.838Z,19.64
2022-08-03T00:41:41.840Z,19.59
2022-08-03T00:42:41.843Z,19.62
2022-08-03T00:43:41.835Z,19.58
2022-08-03T00:44:41.831Z,19.62
2022-08-03T00:45:41.835Z,19.58
2022-08-03T00:46:41.827Z,19.54
2022-08-03T00:47:41.830Z,19.48
2022-08-03T00:48:41.825Z,19.49
2022-08-03T00:49:41.879Z,19.48
2022-08-03T00:50:41.825Z,19.62
2022-08-03T00:51:41.822Z,19.58
2022-08-03T00:52:41.822Z,19.48
2022-08-03T00:53:41.823Z,19.48
2022-08-03T00:54:41.826Z,19.47
2022-08-03T00:55:41.816Z,19.54
2022-08-03T00:56:41.814Z,19.44
2022-08-03T00:57:41.821Z,19.51
2022-08-03T00:58:41.813Z,19.41
2022-08-03T00:59:41.809Z,19.51
2022-08-03T01:00:41.808Z,19.47
2022-08-03T01:01:41.905Z,19.47
2022-08-03T01:02:41.804Z,19.37
2022-08-03T01:03:41.807Z,19.36
2022-08-03T01:04:41.803Z,19.34
2022-08-03T01:05:41.802Z,19.40
2022-08-03T01:06:41.804Z,19.19
2022-08-03T01:07:41.795Z,19.22
2022-08-03T01:08:41.791Z,19.26
2022-08-03T01:09:41.799Z,19.22
2022-08-03T01:10:41.788Z,19.18
2022-08-03T01:12:00.249Z,19.16
2022-08-03T01:12:41.788Z,19.08
2022-08-03T01:14:04.067Z,19.11
2022-08-03T01:14:41.796Z,19.11
2022-08-03T01:15:41.784Z,19.09
2022-08-03T01:16:41.782Z,19.11
2022-08-03T01:17:41.780Z,19.09
2022-08-03T01:18:41.779Z,19.07
2022-08-03T01:19:41.776Z,19.09
2022-08-03T01:20:41.776Z,19.11
2022-08-03T01:21:41.775Z,19.09
2022-08-03T01:22:41.771Z,19.15
2022-08-03T01:23:41.770Z,19.15
2022-08-03T01:24:41.766Z,19.21
2022-08-03T01:25:41.763Z,19.27
2022-08-03T01:26:41.768Z,19.24
2022-08-03T01:27:41.760Z,19.19
2022-08-03T01:28:41.761Z,19.30
2022-08-03T01:29:41.766Z,19.30
2022-08-03T01:30:41.757Z,19.37
2022-08-03T01:32:58.628Z,19.44
2022-08-03T01:32:58.899Z,19.36
2022-08-03T01:33:41.755Z,19.37
2022-08-03T01:34:41.748Z,19.39
2022-08-03T01:35:41.749Z,19.41
2022-08-03T01:36:41.745Z,19.41
2022-08-03T01:37:41.747Z,19.41
2022-08-03T01:38:41.748Z,19.40
2022-08-03T01:39:41.742Z,19.45
2022-08-03T01:40:41.747Z,19.41
2022-08-03T01:41:41.745Z,19.44
2022-08-03T01:42:41.736Z,19.44
2022-08-03T01:44:26.406Z,19.44
2022-08-03T01:44:41.741Z,19.45
2022-08-03T01:45:41.726Z,19.47
2022-08-03T01:46:47.667Z,19.40
2022-08-03T01:47:41.732Z,19.47
2022-08-03T01:48:41.732Z,19.40
2022-08-03T01:49:41.797Z,19.44
2022-08-03T01:50:41.722Z,19.37
2022-08-03T01:52:03.179Z,19.36
2022-08-03T01:52:41.719Z,19.45
2022-08-03T01:53:41.723Z,19.34
2022-08-03T01:54:41.717Z,19.31
2022-08-03T01:55:41.715Z,19.34
2022-08-03T01:56:41.734Z,19.44
2022-08-03T01:58:04.598Z,19.37
2022-08-03T01:58:41.709Z,19.36
2022-08-03T01:59:41.711Z,19.44
2022-08-03T02:00:41.754Z,19.47
2022-08-03T02:02:31.697Z,19.39
2022-08-03T02:02:42.313Z,19.47
2022-08-03T02:04:00.050Z,19.44
2022-08-03T02:04:41.700Z,19.51
2022-08-03T02:05:41.705Z,19.48
2022-08-03T02:07:02.815Z,19.63
2022-08-03T02:07:41.694Z,19.56
2022-08-03T02:08:41.697Z,19.48
2022-08-03T02:09:41.686Z,19.41
2022-08-03T02:10:41.688Z,19.58
2022-08-03T02:11:41.684Z,19.52
2022-08-03T02:12:41.685Z,19.56
2022-08-03T02:13:41.686Z,19.55
2022-08-03T02:14:41.686Z,19.54
2022-08-03T02:15:41.679Z,19.52
2022-08-03T02:16:41.686Z,19.47
2022-08-03T02:17:41.683Z,19.58
2022-08-03T02:18:41.677Z,19.45
2022-08-03T02:19:41.675Z,19.52
2022-08-03T02:20:41.676Z,19.51
2022-08-03T02:21:56.560Z,19.56
2022-08-03T02:22:41.670Z,19.54
2022-08-03T02:23:41.667Z,19.44
2022-08-03T02:24:41.659Z,19.47
2022-08-03T02:25:41.673Z,19.51
2022-08-03T02:26:41.659Z,19.52
2022-08-03T02:27:43.680Z,19.51
2022-08-03T02:28:41.660Z,19.56
2022-08-03T02:29:41.654Z,19.59
2022-08-03T02:30:41.654Z,19.56
2022-08-03T02:31:41.657Z,19.52
2022-08-03T02:32:41.658Z,19.56
2022-08-03T02:33:41.646Z,19.54
2022-08-03T02:34:41.648Z,19.49
2022-08-03T02:35:41.650Z,19.49
2022-08-03T02:36:41.644Z,19.44
2022-08-03T02:37:42.902Z,19.56
2022-08-03T02:38:41.657Z,19.52
2022-08-03T02:39:41.640Z,19.52
2022-08-03T02:40:41.642Z,19.51
2022-08-03T02:41:41.636Z,19.56
2022-08-03T02:42:41.635Z,19.59
2022-08-03T02:44:06.314Z,19.44
2022-08-03T02:44:41.641Z,19.47
2022-08-03T02:45:45.385Z,19.44
2022-08-03T02:46:41.627Z,19.48
2022-08-03T02:47:54.058Z,19.45
2022-08-03T02:48:41.621Z,19.31
2022-08-03T02:49:50.915Z,19.41
2022-08-03T02:50:41.621Z,19.37
2022-08-03T02:51:41.623Z,19.33
2022-08-03T02:52:41.625Z,19.40
2022-08-03T02:53:41.617Z,19.36
2022-08-03T02:54:41.611Z,19.31
2022-08-03T02:55:45.614Z,19.29
2022-08-03T02:56:41.609Z,19.36
2022-08-03T02:57:41.611Z,19.37
2022-08-03T02:58:41.607Z,19.34
2022-08-03T02:59:41.607Z,19.31
2022-08-03T03:00:41.647Z,19.36
2022-08-03T03:01:41.609Z,19.31
2022-08-03T03:02:44.444Z,19.37
2022-08-03T03:03:44.903Z,19.37
2022-08-03T03:04:44.433Z,19.31
2022-08-03T03:05:54.836Z,19.33
2022-08-03T03:06:41.591Z,19.33
2022-08-03T03:07:52.261Z,19.27
2022-08-03T03:08:41.588Z,19.19
2022-08-03T03:09:43.203Z,19.21
2022-08-03T03:10:41.590Z,19.22
2022-08-03T03:11:41.582Z,19.12
2022-08-03T03:12:41.590Z,19.12
2022-08-03T03:13:41.588Z,19.09
2022-08-03T03:14:41.578Z,19.09
2022-08-03T03:15:41.580Z,18.90
2022-08-03T03:16:41.577Z,18.98
2022-08-03T03:17:41.572Z,18.96
2022-08-03T03:18:41.571Z,18.93
2022-08-03T03:19:41.563Z,18.99
2022-08-03T03:20:41.563Z,18.88
2022-08-03T03:21:41.566Z,18.93
2022-08-03T03:22:41.565Z,18.89
2022-08-03T03:23:41.563Z,18.83
2022-08-03T03:24:41.567Z,18.99
2022-08-03T03:25:41.556Z,18.96
2022-08-03T03:26:42.511Z,18.86
2022-08-03T03:27:41.560Z,18.83
2022-08-03T03:28:41.553Z,18.83
2022-08-03T03:29:41.551Z,18.83
2022-08-03T03:30:41.552Z,18.70
2022-08-03T03:31:41.546Z,18.80
2022-08-03T03:32:41.540Z,18.80
2022-08-03T03:33:41.541Z,18.84
2022-08-03T03:34:41.541Z,18.89
2022-08-03T03:35:41.543Z,18.81
2022-08-03T03:36:41.546Z,18.68
2022-08-03T03:37:41.535Z,18.83
2022-08-03T03:38:41.543Z,18.86
2022-08-03T03:39:41.532Z,18.90
2022-08-03T03:40:41.581Z,18.81
2022-08-03T03:41:41.531Z,18.77
2022-08-03T03:42:41.518Z,18.68
2022-08-03T03:43:41.526Z,18.77
2022-08-03T03:44:41.521Z,18.66
2022-08-03T03:45:41.520Z,18.70
2022-08-03T03:46:41.516Z,18.63
2022-08-03T03:47:41.521Z,18.63
2022-08-03T03:48:41.515Z,18.60
2022-08-03T03:49:41.509Z,18.55
2022-08-03T03:50:41.512Z,18.65
2022-08-03T03:51:41.505Z,18.65
2022-08-03T03:52:41.506Z,18.59
2022-08-03T03:53:41.497Z,18.60
2022-08-03T03:54:41.493Z,18.66
2022-08-03T03:56:01.207Z,18.73
2022-08-03T03:56:41.488Z,18.77
2022-08-03T03:57:41.493Z,18.66
2022-08-03T03:58:41.501Z,18.71
2022-08-03T03:59:41.491Z,18.75
2022-08-03T04:00:41.534Z,18.84
2022-08-03T04:01:41.491Z,18.90
2022-08-03T04:02:41.482Z,18.86
2022-08-03T04:03:41.486Z,18.89
2022-08-03T04:04:41.484Z,18.88
2022-08-03T04:05:45.782Z,18.84
2022-08-03T04:06:41.472Z,18.80
2022-08-03T04:07:41.473Z,18.90
2022-08-03T04:08:41.471Z,18.84
2022-08-03T04:09:41.471Z,19.04
2022-08-03T04:10:41.464Z,18.92
2022-08-03T04:11:41.465Z,19.11
2022-08-03T04:12:50.206Z,19.07
2022-08-03T04:13:41.457Z,19.18
2022-08-03T04:14:41.459Z,19.15
2022-08-03T04:15:41.463Z,19.21
2022-08-03T04:16:43.791Z,19.29
2022-08-03T04:17:41.448Z,19.30
2022-08-03T04:18:41.449Z,19.41
2022-08-03T04:19:41.448Z,19.37
2022-08-03T04:20:41.450Z,19.41
2022-08-03T04:21:41.450Z,19.45
2022-08-03T04:22:41.441Z,19.51
2022-08-03T04:23:41.440Z,19.52
2022-08-03T04:24:41.435Z,19.59
2022-08-03T04:25:41.437Z,19.66
2022-08-03T04:26:41.434Z,19.67
2022-08-03T04:27:41.439Z,19.77
2022-08-03T04:28:41.423Z,19.67
2022-08-03T04:29:44.884Z,19.88
2022-08-03T04:30:41.459Z,19.84
2022-08-03T04:31:41.420Z,19.91
2022-08-03T04:32:45.690Z,19.88
2022-08-03T04:33:41.420Z,19.88
2022-08-03T04:34:41.418Z,19.91
2022-08-03T04:36:00.871Z,20.06
2022-08-03T04:36:41.423Z,20.11
2022-08-03T04:37:41.427Z,20.13
2022-08-03T04:38:41.413Z,20.22
2022-08-03T04:39:41.405Z,20.37
2022-08-03T04:40:41.403Z,20.66
2022-08-03T04:42:08.199Z,21.00
2022-08-03T04:42:41.405Z,21.48
2022-08-03T04:43:41.419Z,22.07
2022-08-03T04:44:41.410Z,22.53
2022-08-03T04:45:41.399Z,23.05
2022-08-03T04:46:41.399Z,23.48
2022-08-03T04:47:41.410Z,23.99
2022-08-03T04:48:44.593Z,24.42
2022-08-03T04:49:41.444Z,24.86
2022-08-03T04:50:41.391Z,25.23
2022-08-03T04:51:41.394Z,25.55
2022-08-03T04:52:41.393Z,25.96
2022-08-03T04:53:41.388Z,26.34
2022-08-03T04:54:41.391Z,26.66
2022-08-03T04:55:41.387Z,26.93
2022-08-03T04:56:41.388Z,27.36
2022-08-03T04:57:41.389Z,27.52
2022-08-03T04:58:41.388Z,27.85
2022-08-03T04:59:41.385Z,28.01
2022-08-03T05:00:41.389Z,28.25
2022-08-03T05:01:41.485Z,28.33
2022-08-03T05:02:41.383Z,28.48
2022-08-03T05:03:41.386Z,28.72
2022-08-03T05:04:41.394Z,28.82
2022-08-03T05:05:50.137Z,28.94
2022-08-03T05:06:47.857Z,29.01
2022-08-03T05:07:41.391Z,29.16
2022-08-03T05:08:46.182Z,29.27
2022-08-03T05:09:52.819Z,29.34
2022-08-03T05:10:41.386Z,29.47
2022-08-03T05:11:41.394Z,29.66
2022-08-03T05:12:41.392Z,29.86
2022-08-03T05:13:41.422Z,29.97
2022-08-03T05:14:41.387Z,30.13
2022-08-03T05:15:42.938Z,30.31
2022-08-03T05:16:41.389Z,30.40
2022-08-03T05:17:41.390Z,30.65
2022-08-03T05:18:41.393Z,30.83
2022-08-03T05:19:41.395Z,30.92
2022-08-03T05:20:41.401Z,31.10
2022-08-03T05:21:52.596Z,31.24
2022-08-03T05:22:41.392Z,31.34
2022-08-03T05:23:41.404Z,31.55
2022-08-03T05:24:41.397Z,31.59
2022-08-03T05:25:49.628Z,31.80
2022-08-03T05:26:41.408Z,31.85
2022-08-03T05:27:41.401Z,31.92
2022-08-03T05:28:50.807Z,32.11
2022-08-03T05:29:41.415Z,32.27
2022-08-03T05:30:41.417Z,32.45
2022-08-03T05:31:41.414Z,32.53
2022-08-03T05:32:41.417Z,32.65
2022-08-03T05:33:41.431Z,32.83
2022-08-03T05:34:41.423Z,32.86
2022-08-03T05:35:57.751Z,32.93
2022-08-03T05:36:41.424Z,33.08
2022-08-03T05:37:41.424Z,33.27
2022-08-03T05:38:41.429Z,33.42
2022-08-03T05:39:41.432Z,33.45
2022-08-03T05:40:47.004Z,33.67
2022-08-03T05:41:41.435Z,33.79
2022-08-03T05:42:41.435Z,33.94
2022-08-03T05:43:41.437Z,33.90
2022-08-03T05:44:41.441Z,34.03
2022-08-03T05:45:41.444Z,34.24
2022-08-03T05:46:41.448Z,34.35
2022-08-03T05:47:41.465Z,34.39
2022-08-03T05:48:41.458Z,34.36
2022-08-03T05:49:41.537Z,34.51
2022-08-03T05:50:42.939Z,34.58
2022-08-03T05:51:41.468Z,34.54
2022-08-03T05:52:41.487Z,34.58
2022-08-03T05:53:41.472Z,34.74
2022-08-03T05:54:55.627Z,34.66
2022-08-03T05:55:41.496Z,34.81
2022-08-03T05:56:41.495Z,34.88
2022-08-03T05:57:41.488Z,34.90
2022-08-03T05:58:41.502Z,34.95
2022-08-03T05:59:53.649Z,35.08
2022-08-03T06:00:41.513Z,35.18
2022-08-03T06:01:41.545Z,35.30
2022-08-03T06:02:41.507Z,35.33
2022-08-03T06:03:41.514Z,35.49
2022-08-03T06:04:41.511Z,35.46
2022-08-03T06:05:43.350Z,35.41
2022-08-03T06:06:41.520Z,35.45
2022-08-03T06:07:41.525Z,35.33
2022-08-03T06:08:41.560Z,35.49
2022-08-03T06:10:36.610Z,35.46
2022-08-03T06:10:41.544Z,35.52
2022-08-03T06:11:41.538Z,35.41
2022-08-03T06:12:41.541Z,35.53
2022-08-03T06:13:41.594Z,35.70
2022-08-03T06:14:41.555Z,35.78
2022-08-03T06:15:41.559Z,35.83
2022-08-03T06:16:41.562Z,36.05
2022-08-03T06:17:41.567Z,36.01
2022-08-03T06:18:41.582Z,36.21
2022-08-03T06:19:41.577Z,36.33
2022-08-03T06:20:41.656Z,36.46
2022-08-03T06:21:41.586Z,36.57
2022-08-03T06:22:50.491Z,36.65
2022-08-03T06:23:54.015Z,36.64
2022-08-03T06:24:41.607Z,36.77
2022-08-03T06:25:41.604Z,36.80
2022-08-03T06:26:41.631Z,36.98
2022-08-03T06:27:41.621Z,37.01
2022-08-03T06:28:52.850Z,36.99
2022-08-03T06:29:41.632Z,37.14
2022-08-03T06:30:41.637Z,37.20
2022-08-03T06:31:41.643Z,37.28
2022-08-03T06:32:41.645Z,37.33
2022-08-03T06:33:48.509Z,37.32
2022-08-03T06:34:41.669Z,37.35
2022-08-03T06:35:41.753Z,37.47
2022-08-03T06:36:41.676Z,37.29
2022-08-03T06:37:41.699Z,37.32
2022-08-03T06:38:41.688Z,37.33
2022-08-03T06:39:41.692Z,37.40
2022-08-03T06:40:41.697Z,37.48
2022-08-03T06:41:44.806Z,37.53
2022-08-03T06:42:42.074Z,37.74
2022-08-03T06:44:02.550Z,37.83
2022-08-03T06:44:41.720Z,37.86
2022-08-03T06:45:41.771Z,37.86
2022-08-03T06:46:41.733Z,37.87
2022-08-03T06:47:41.742Z,37.97
2022-08-03T06:48:41.749Z,37.89
2022-08-03T06:49:41.845Z,37.87
2022-08-03T06:50:41.761Z,38.05
2022-08-03T06:52:04.259Z,38.01
2022-08-03T06:52:41.771Z,37.99
2022-08-03T06:53:41.782Z,37.93
2022-08-03T06:54:41.792Z,38.17
2022-08-03T06:55:42.473Z,38.26
2022-08-03T06:56:41.803Z,38.28
2022-08-03T06:57:41.809Z,38.28
2022-08-03T06:58:41.818Z,38.38
2022-08-03T07:00:08.895Z,38.20
2022-08-03T07:00:41.833Z,38.14
2022-08-03T07:01:41.898Z,38.23
2022-08-03T07:02:41.910Z,38.23
2022-08-03T07:03:47.609Z,38.30
2022-08-03T07:04:41.862Z,38.49
2022-08-03T07:05:41.872Z,38.54
2022-08-03T07:06:41.884Z,38.69
2022-08-03T07:07:41.891Z,38.86
2022-08-03T07:08:41.894Z,38.97
2022-08-03T07:09:41.904Z,39.11
2022-08-03T07:10:41.922Z,38.91
2022-08-03T07:11:41.923Z,38.69
2022-08-03T07:12:52.749Z,38.73
2022-08-03T07:13:41.936Z,38.92
2022-08-03T07:14:41.944Z,39.06
2022-08-03T07:15:55.315Z,39.19
2022-08-03T07:16:41.955Z,39.30
2022-08-03T07:17:41.969Z,39.30
2022-08-03T07:18:41.970Z,39.29
2022-08-03T07:19:41.979Z,39.48
2022-08-03T07:20:41.992Z,39.70
2022-08-03T07:21:41.994Z,39.94
2022-08-03T07:22:42.005Z,40.18
2022-08-03T07:23:42.011Z,40.23
2022-08-03T07:24:42.016Z,40.50
2022-08-03T07:25:42.026Z,40.58
2022-08-03T07:26:42.038Z,40.70
2022-08-03T07:27:42.056Z,40.63
2022-08-03T07:28:42.053Z,40.69
2022-08-03T07:29:42.063Z,40.62
2022-08-03T07:30:42.081Z,40.46
2022-08-03T07:31:42.075Z,40.23
2022-08-03T07:32:50.186Z,40.20
2022-08-03T07:33:42.096Z,40.23
2022-08-03T07:34:42.104Z,40.28
2022-08-03T07:35:42.112Z,40.59
2022-08-03T07:36:42.125Z,40.70
2022-08-03T07:37:42.132Z,40.84
2022-08-03T07:38:42.142Z,40.99
2022-08-03T07:39:42.151Z,41.06
2022-08-03T07:40:46.145Z,40.91
2022-08-03T07:41:42.166Z,41.00
2022-08-03T07:42:42.177Z,41.00
2022-08-03T07:43:42.194Z,41.10
2022-08-03T07:44:42.200Z,41.09
2022-08-03T07:45:42.218Z,41.04
2022-08-03T07:46:42.215Z,41.09
2022-08-03T07:47:42.221Z,41.09
2022-08-03T07:48:42.234Z,41.21
2022-08-03T07:49:42.336Z,41.40
2022-08-03T07:50:42.249Z,41.49
2022-08-03T07:51:42.256Z,41.60
2022-08-03T07:52:42.265Z,41.63
2022-08-03T07:53:47.243Z,41.60
2022-08-03T07:54:42.301Z,41.47
2022-08-03T07:55:42.296Z,41.36
2022-08-03T07:56:42.313Z,41.57
2022-08-03T07:57:42.328Z,41.82
2022-08-03T07:58:42.327Z,41.59
2022-08-03T07:59:56.384Z,41.41
2022-08-03T08:00:42.343Z,41.41
2022-08-03T08:01:42.424Z,40.81
2022-08-03T08:02:42.362Z,40.61
2022-08-03T08:03:52.600Z,40.30
2022-08-03T08:04:42.410Z,39.65
2022-08-03T08:05:42.401Z,39.75
2022-08-03T08:06:42.430Z,39.93
2022-08-03T08:07:42.417Z,40.11
2022-08-03T08:08:42.425Z,40.33
2022-08-03T08:09:42.432Z,40.24
2022-08-03T08:10:42.442Z,40.56
2022-08-03T08:11:42.450Z,40.77
2022-08-03T08:12:42.456Z,41.25
2022-08-03T08:13:42.478Z,40.77
2022-08-03T08:14:42.479Z,40.47
2022-08-03T08:15:42.631Z,40.38
2022-08-03T08:16:42.499Z,40.33
2022-08-03T08:17:42.510Z,40.04
2022-08-03T08:18:42.526Z,40.06
2022-08-03T08:19:46.736Z,40.15
2022-08-03T08:20:42.538Z,40.30
2022-08-03T08:21:53.039Z,40.27
2022-08-03T08:22:42.560Z,40.30
2022-08-03T08:23:44.318Z,40.35
2022-08-03T08:24:42.589Z,39.65
2022-08-03T08:25:42.584Z,39.03
2022-08-03T08:26:42.597Z,38.74
2022-08-03T08:28:29.286Z,38.52
2022-08-03T08:28:42.615Z,38.26
2022-08-03T08:29:47.941Z,38.02
2022-08-03T08:30:42.633Z,37.63
2022-08-03T08:31:42.645Z,37.26
2022-08-03T08:32:42.646Z,36.64
2022-08-03T08:34:03.189Z,35.80
2022-08-03T08:34:42.663Z,34.95
2022-08-03T08:35:42.669Z,34.74
2022-08-03T08:36:42.675Z,34.51
2022-08-03T08:37:42.684Z,34.14
2022-08-03T08:38:42.692Z,33.79
2022-08-03T08:39:42.696Z,33.43
2022-08-03T08:40:42.703Z,33.22
2022-08-03T08:41:46.841Z,33.08
2022-08-03T08:42:57.545Z,32.95
2022-08-03T08:43:42.725Z,32.86
2022-08-03T08:44:42.728Z,32.55
2022-08-03T08:45:42.734Z,32.22
2022-08-03T08:46:42.741Z,32.21
2022-08-03T08:47:51.009Z,31.96
2022-08-03T08:48:42.751Z,31.92
2022-08-03T08:49:58.192Z,31.77
2022-08-03T08:50:42.763Z,31.80
2022-08-03T08:51:59.439Z,31.78
2022-08-03T08:52:42.775Z,31.78
2022-08-03T08:53:42.785Z,31.77
2022-08-03T08:54:42.793Z,31.76
2022-08-03T08:55:58.669Z,31.65
2022-08-03T08:56:42.798Z,31.54
2022-08-03T08:57:43.614Z,31.49
2022-08-03T08:58:42.813Z,31.64
2022-08-03T08:59:47.903Z,31.90
2022-08-03T09:00:42.837Z,32.11
2022-08-03T09:01:42.827Z,32.45
2022-08-03T09:02:42.827Z,32.86
2022-08-03T09:03:42.837Z,33.53
2022-08-03T09:04:42.843Z,33.92
2022-08-03T09:05:55.701Z,34.64
2022-08-03T09:06:53.694Z,35.17
2022-08-03T09:07:42.858Z,35.63
2022-08-03T09:08:42.864Z,36.02
2022-08-03T09:10:10.363Z,35.92
2022-08-03T09:10:42.875Z,35.76
2022-08-03T09:11:51.742Z,35.30
2022-08-03T09:12:43.073Z,34.90
2022-08-03T09:13:42.895Z,34.52
2022-08-03T09:14:55.136Z,33.89
2022-08-03T09:15:42.911Z,33.05
2022-08-03T09:16:42.913Z,32.65
2022-08-03T09:17:45.428Z,32.38
2022-08-03T09:18:42.922Z,32.15
2022-08-03T09:19:42.928Z,31.81
2022-08-03T09:20:42.933Z,31.62
2022-08-03T09:21:42.944Z,31.59
2022-08-03T09:22:42.943Z,31.39
2022-08-03T09:23:51.845Z,31.27
2022-08-03T09:24:43.488Z,31.17
2022-08-03T09:25:42.959Z,31.14
2022-08-03T09:26:42.965Z,31.02
2022-08-03T09:27:42.970Z,31.00
2022-08-03T09:29:01.328Z,30.96
2022-08-03T09:29:42.981Z,31.06
2022-08-03T09:30:42.987Z,30.84
2022-08-03T09:31:43.201Z,31.03
2022-08-03T09:32:42.986Z,30.81
2022-08-03T09:33:42.993Z,30.84
2022-08-03T09:34:43.000Z,30.80
2022-08-03T09:35:58.505Z,30.73
2022-08-03T09:36:43.020Z,30.77
2022-08-03T09:38:13.920Z,30.72
2022-08-03T09:38:43.027Z,30.72
2022-08-03T09:39:43.021Z,30.65
2022-08-03T09:40:43.022Z,30.72
2022-08-03T09:41:43.028Z,30.77
2022-08-03T09:42:43.031Z,30.75
2022-08-03T09:43:43.038Z,30.70
2022-08-03T09:44:43.041Z,30.62
2022-08-03T09:45:43.044Z,30.66
2022-08-03T09:46:43.050Z,30.59
2022-08-03T09:47:44.919Z,30.53
2022-08-03T09:48:43.051Z,30.48
2022-08-03T09:49:43.110Z,30.43
2022-08-03T09:50:43.063Z,30.51
2022-08-03T09:52:31.804Z,30.51
2022-08-03T09:52:50.029Z,30.51
2022-08-03T09:53:51.497Z,30.51
2022-08-03T09:54:43.082Z,30.63
2022-08-03T09:56:34.774Z,30.68
2022-08-03T09:56:43.083Z,30.69
2022-08-03T09:57:43.093Z,30.70
2022-08-03T09:58:43.096Z,30.78
2022-08-03T09:59:43.101Z,30.59
2022-08-03T10:00:43.143Z,30.68
2022-08-03T10:01:43.185Z,30.68
2022-08-03T10:02:43.113Z,30.69
2022-08-03T10:04:02.965Z,30.72
2022-08-03T10:04:43.119Z,30.77
2022-08-03T10:05:43.125Z,30.66
2022-08-03T10:06:43.127Z,30.80
2022-08-03T10:07:46.117Z,30.77
2022-08-03T10:08:43.134Z,30.70
2022-08-03T10:09:43.142Z,30.68
2022-08-03T10:10:43.147Z,30.70
2022-08-03T10:11:43.154Z,30.63
2022-08-03T10:12:43.150Z,30.55
2022-08-03T10:13:43.154Z,30.59
2022-08-03T10:14:43.160Z,30.57
2022-08-03T10:16:22.946Z,30.69
2022-08-03T10:16:43.162Z,30.62
2022-08-03T10:17:43.170Z,30.68
2022-08-03T10:18:43.173Z,30.70
2022-08-03T10:19:43.181Z,30.68
2022-08-03T10:20:43.186Z,30.69
2022-08-03T10:21:43.187Z,30.75
2022-08-03T10:22:43.184Z,30.75
2022-08-03T10:23:43.191Z,30.65
2022-08-03T10:24:43.193Z,30.68
2022-08-03T10:25:43.197Z,30.73
2022-08-03T10:26:49.987Z,30.77
2022-08-03T10:27:43.207Z,30.73
2022-08-03T10:28:45.488Z,30.78
2022-08-03T10:29:43.216Z,30.66
2022-08-03T10:30:43.217Z,30.61
2022-08-03T10:31:57.746Z,30.63
2022-08-03T10:32:43.222Z,30.77
2022-08-03T10:33:51.982Z,30.73
2022-08-03T10:34:44.687Z,30.83
2022-08-03T10:35:43.240Z,30.92
2022-08-03T10:36:43.245Z,31.20
2022-08-03T10:37:43.246Z,31.40
2022-08-03T10:38:43.248Z,31.37
2022-08-03T10:39:43.254Z,31.31
2022-08-03T10:40:53.480Z,31.36
2022-08-03T10:41:43.265Z,31.37
2022-08-03T10:42:43.265Z,31.40
2022-08-03T10:43:43.271Z,31.34
2022-08-03T10:44:43.274Z,31.47
2022-08-03T10:45:43.276Z,31.39
2022-08-03T10:46:45.183Z,31.51
2022-08-03T10:47:43.286Z,31.39
2022-08-03T10:48:43.289Z,31.51
2022-08-03T10:49:43.355Z,31.56
2022-08-03T10:50:43.293Z,31.46
2022-08-03T10:51:43.297Z,31.55
2022-08-03T10:52:45.371Z,31.49
2022-08-03T10:53:44.114Z,31.49
2022-08-03T10:54:43.335Z,31.46
2022-08-03T10:55:43.321Z,31.54
2022-08-03T10:56:49.738Z,31.56
2022-08-03T10:57:43.320Z,31.58
2022-08-03T10:58:57.703Z,31.55
2022-08-03T10:59:43.330Z,31.54
2022-08-03T11:00:43.384Z,31.65
2022-08-03T11:01:58.183Z,31.64
2022-08-03T11:02:43.343Z,31.71
2022-08-03T11:03:43.346Z,31.80
2022-08-03T11:04:43.364Z,31.85
2022-08-03T11:05:43.352Z,31.97
2022-08-03T11:06:43.368Z,31.92
2022-08-03T11:07:43.361Z,31.94
2022-08-03T11:08:43.366Z,32.00
2022-08-03T11:09:43.374Z,32.00
2022-08-03T11:10:43.379Z,32.12
2022-08-03T11:11:43.381Z,32.11
2022-08-03T11:12:43.382Z,32.03
2022-08-03T11:13:43.393Z,31.93
2022-08-03T11:14:43.393Z,31.93
2022-08-03T11:15:43.393Z,31.93
2022-08-03T11:16:43.404Z,32.04
2022-08-03T11:17:46.450Z,32.00
2022-08-03T11:18:43.411Z,32.12
2022-08-03T11:19:57.366Z,32.12
2022-08-03T11:20:43.416Z,32.21
2022-08-03T11:21:43.420Z,32.33
2022-08-03T11:22:43.423Z,32.41
2022-08-03T11:24:03.420Z,32.43
2022-08-03T11:24:43.431Z,32.46
2022-08-03T11:25:54.858Z,32.55
2022-08-03T11:26:43.443Z,32.56
2022-08-03T11:27:43.443Z,32.59
2022-08-03T11:28:43.454Z,32.65
2022-08-03T11:29:43.461Z,32.67
2022-08-03T11:30:43.459Z,32.45
2022-08-03T11:31:51.812Z,32.37
2022-08-03T11:32:46.740Z,32.30
2022-08-03T11:33:43.468Z,32.08
2022-08-03T11:34:43.474Z,31.93
2022-08-03T11:35:43.479Z,31.77
2022-08-03T11:36:43.485Z,31.80
2022-08-03T11:37:43.490Z,31.94
2022-08-03T11:38:43.494Z,32.01
2022-08-03T11:39:43.503Z,32.00
2022-08-03T11:40:43.530Z,32.21
2022-08-03T11:41:45.229Z,32.30
2022-08-03T11:42:43.509Z,32.34
2022-08-03T11:43:43.514Z,32.27
2022-08-03T11:44:47.454Z,32.33
2022-08-03T11:45:43.528Z,32.36
2022-08-03T11:46:43.535Z,32.45
2022-08-03T11:47:50.714Z,32.40
2022-08-03T11:48:43.536Z,32.40
2022-08-03T11:49:43.599Z,32.59
2022-08-03T11:50:43.546Z,32.55
2022-08-03T11:51:43.557Z,32.75
2022-08-03T11:52:43.556Z,32.68
2022-08-03T11:53:43.561Z,32.71
2022-08-03T11:54:43.564Z,32.78
2022-08-03T11:55:43.571Z,32.78
2022-08-03T11:56:43.577Z,32.89
2022-08-03T11:59:01.306Z,32.89
2022-08-03T11:59:14.260Z,32.95
2022-08-03T11:59:43.592Z,32.96
2022-08-03T12:00:43.592Z,33.07
2022-08-03T12:01:43.598Z,33.15
2022-08-03T12:02:43.934Z,33.12
2022-08-03T12:03:43.661Z,33.27
2022-08-03T12:04:43.610Z,33.14
2022-08-03T12:05:51.054Z,32.96
2022-08-03T12:06:47.256Z,33.01
2022-08-03T12:08:03.494Z,33.01
2022-08-03T12:08:43.634Z,32.92
2022-08-03T12:09:43.640Z,33.02
2022-08-03T12:10:43.640Z,33.02
2022-08-03T12:11:59.709Z,33.05
2022-08-03T12:12:46.530Z,33.15
2022-08-03T12:14:33.082Z,33.20
2022-08-03T12:14:48.638Z,33.22
2022-08-03T12:15:43.665Z,33.14
2022-08-03T12:16:43.665Z,33.22
2022-08-03T12:17:43.729Z,33.22
2022-08-03T12:18:43.676Z,33.14
2022-08-03T12:19:43.717Z,33.23
2022-08-03T12:20:43.687Z,33.19
2022-08-03T12:21:43.695Z,33.30
2022-08-03T12:22:43.697Z,33.34
2022-08-03T12:23:43.704Z,33.36
2022-08-03T12:24:43.705Z,33.36
2022-08-03T12:25:43.714Z,33.19
2022-08-03T12:26:43.719Z,33.17
2022-08-03T12:27:43.724Z,33.19
2022-08-03T12:28:48.049Z,33.22
2022-08-03T12:29:43.732Z,33.20
2022-08-03T12:30:43.738Z,33.30
2022-08-03T12:31:43.747Z,33.28
2022-08-03T12:32:43.748Z,33.28
2022-08-03T12:33:43.753Z,33.22
2022-08-03T12:34:47.052Z,33.28
2022-08-03T12:35:52.130Z,33.28
2022-08-03T12:36:43.767Z,33.34
2022-08-03T12:37:43.772Z,33.22
2022-08-03T12:38:43.778Z,33.24
2022-08-03T12:40:02.744Z,33.20
2022-08-03T12:40:43.789Z,33.28
2022-08-03T12:41:43.793Z,33.31
2022-08-03T12:42:43.805Z,33.30
2022-08-03T12:43:43.805Z,33.34
2022-08-03T12:44:43.813Z,33.40
2022-08-03T12:45:43.819Z,33.24
2022-08-03T12:46:47.732Z,33.28
2022-08-03T12:47:43.829Z,33.07
2022-08-03T12:48:43.827Z,33.11
2022-08-03T12:49:43.831Z,33.12
2022-08-03T12:50:43.837Z,33.07
2022-08-03T12:51:43.855Z,33.08
2022-08-03T12:52:43.855Z,33.05